Silver City, MI

3:10 AM EST on January 22, 2017 (GMT -0500)
Mountain View Lodges, Silver City, MI / Porcupine Mountains Area | | Change Station
Active Advisory: Dense Fog Advisory

Elev 587 ft 46.83 °N, 89.58 °W | Updated 10 minutes ago

Fog
Fog
33.2 °F
Feels Like 33 °F
N
0.0
Wind Variable Wind from East
Gusts 0.0 mph

Today
High -- | Low -- °F
--% Chance of Precip.
Yesterday
High -- | Low -- °F
Precip. -- in
Pressure 29.57 in
Visibility 0.2 miles
Clouds Overcast 200 ft
Windchill 33 °F
Dew Point 32 °F
Humidity 97%
Rainfall 0.00 in
Snow Depth Not available.
8:33 AM 5:47 PM
Waning Crescent, 28% visible
METAR KIWD 220756Z AUTO 25004KT 1/4SM FG OVC002 01/01 A2953 RMK AO2 SLP011 T00110006 FZRANO RVRNO
Pressure 29.57 in
Visibility 0.2 miles
Clouds Overcast 200 ft
Windchill 33 °F
Dew Point 32 °F
Humidity 97%
Rainfall 0.00 in
Snow Depth Not available.
8:33 AM 5:47 PM
Waning Crescent, 28% visible
METAR KIWD 220756Z AUTO 25004KT 1/4SM FG OVC002 01/01 A2953 RMK AO2 SLP011 T00110006 FZRANO RVRNO

Get Your Daily Forecast Email!

Thanks for signing up!

Be on the lookout for a verification email in your inbox.

You'll start receiving the daily forecast at 8 AM.

×

10-Day Weather Forecast

Almanac

Astronomy

Jan. 22, 2017 Rise Set
Actual Time
Civil Twilight
Nautical Twilight
Astronomical Twilight
Moon
Length of Visible Light
Length of Day
Tomorrow will be .
, % of the Moon is Illuminated

Today's Extremes

State Highs State Lows

Community

WunderPhotos

Upload Photos

1,962,540 photos uploaded!

WunderBlog® & News

Nearby

Air Quality

  Air Quality AQ Index Pollutant
Not available.

Snow Depth

Station Depth Elevation

Earthquake Activity

City Distance Mag. Time & Date
Minimum magnitude displayed is 2.5.

Coastal Water Temperatures

Place Temperature

Stations

Nearby Weather Stations

Station Location Temp. Windchill Dew Point Humidity Wind Precip. Elev Updated Type
                   

Watches & Warnings

Dense Fog Advisory
Issued: 7:45 PM CST Jan. 21, 2017 – National Weather Service

... Dense fog advisory remains in effect until 1 PM EST /noon CST/
Sunday...

Hazardous weather:

* patchy dense fog this evening will become more widespread
   overnight into Sunday morning. Visibility will be lower than
   one-quarter mile at times.

Impacts:

* travel will be hazardous due to low visibility. Use your low
   beam headlights when driving overnight.

* The fog freezing on untreated surfaces may result in black ice
   and slippery travel.

Precautionary/preparedness actions:

* a dense fog advisory means visibilities will frequently be
   reduced to less than one quarter mile.

* Prepare, plan, and stay informed. Visit www.Weather.Gov/MQT



Kc